createdAt,value
2023-05-18T00:00:20.452Z,23.72
2023-05-18T00:01:20.484Z,23.70
2023-05-18T00:02:20.517Z,23.70
2023-05-18T00:03:20.708Z,23.70
2023-05-18T00:04:20.550Z,23.70
2023-05-18T00:05:20.540Z,23.68
2023-05-18T00:06:20.523Z,23.70
2023-05-18T00:07:20.554Z,23.70
2023-05-18T00:08:20.559Z,23.68
2023-05-18T00:09:20.980Z,23.70
2023-05-18T00:10:20.636Z,23.68
2023-05-18T00:11:20.613Z,23.69
2023-05-18T00:12:20.622Z,23.68
2023-05-18T00:13:20.667Z,23.70
2023-05-18T00:14:20.638Z,23.69
2023-05-18T00:15:20.660Z,23.68
2023-05-18T00:16:20.728Z,23.68
2023-05-18T00:17:20.683Z,23.68
2023-05-18T00:18:20.686Z,23.66
2023-05-18T00:19:20.793Z,23.66
2023-05-18T00:20:20.719Z,23.70
2023-05-18T00:21:20.757Z,23.68
2023-05-18T00:22:20.747Z,23.68
2023-05-18T00:23:20.777Z,23.66
2023-05-18T00:24:20.848Z,23.68
2023-05-18T00:25:20.770Z,23.66
2023-05-18T00:26:20.815Z,23.68
2023-05-18T00:27:20.813Z,23.66
2023-05-18T00:28:20.869Z,23.69
2023-05-18T00:29:20.886Z,23.65
2023-05-18T00:30:20.891Z,23.66
2023-05-18T00:31:20.973Z,23.66
2023-05-18T00:32:20.917Z,23.66
2023-05-18T00:33:20.914Z,23.66
2023-05-18T00:34:20.948Z,23.66
2023-05-18T00:35:20.982Z,23.66
2023-05-18T00:36:20.979Z,23.66
2023-05-18T00:37:20.970Z,23.66
2023-05-18T00:38:21.014Z,23.66
2023-05-18T00:39:21.023Z,23.66
2023-05-18T00:40:21.018Z,23.66
2023-05-18T00:41:21.028Z,23.66
2023-05-18T00:42:21.074Z,23.66
2023-05-18T00:43:21.069Z,23.66
2023-05-18T00:44:21.082Z,23.68
2023-05-18T00:45:21.061Z,23.66
2023-05-18T00:46:21.125Z,23.66
2023-05-18T00:47:21.108Z,23.65
2023-05-18T00:48:21.190Z,23.68
2023-05-18T00:49:21.160Z,23.65
2023-05-18T00:50:21.160Z,23.63
2023-05-18T00:51:21.162Z,23.63
2023-05-18T00:52:21.184Z,23.66
2023-05-18T00:53:21.226Z,23.65
2023-05-18T00:54:21.218Z,23.63
2023-05-18T00:55:21.265Z,23.65
2023-05-18T00:56:21.273Z,23.62
2023-05-18T00:57:21.260Z,23.63
2023-05-18T00:58:21.250Z,23.63
2023-05-18T00:59:21.285Z,23.63
2023-05-18T01:00:21.329Z,23.63
2023-05-18T01:01:21.329Z,23.63
2023-05-18T01:02:21.422Z,23.62
2023-05-18T01:03:21.431Z,23.62
2023-05-18T01:04:21.359Z,23.62
2023-05-18T01:05:21.402Z,23.62
2023-05-18T01:06:21.390Z,23.62
2023-05-18T01:07:21.390Z,23.62
2023-05-18T01:08:21.421Z,23.62
2023-05-18T01:09:21.431Z,23.61
2023-05-18T01:10:21.464Z,23.62
2023-05-18T01:11:21.503Z,23.62
2023-05-18T01:12:21.497Z,23.59
2023-05-18T01:13:21.562Z,23.62
2023-05-18T01:14:21.974Z,23.65
2023-05-18T01:15:21.555Z,23.61
2023-05-18T01:16:21.633Z,23.63
2023-05-18T01:17:21.722Z,23.62
2023-05-18T01:18:21.640Z,23.61
2023-05-18T01:19:22.068Z,23.61
2023-05-18T01:20:21.666Z,23.61
2023-05-18T01:21:21.707Z,23.61
2023-05-18T01:22:21.710Z,23.62
2023-05-18T01:23:21.742Z,23.62
2023-05-18T01:24:21.755Z,23.62
2023-05-18T01:25:21.753Z,23.61
2023-05-18T01:26:21.805Z,23.62
2023-05-18T01:27:21.797Z,23.61
2023-05-18T01:28:21.823Z,23.61
2023-05-18T01:29:21.975Z,23.61
2023-05-18T01:30:21.871Z,23.61
2023-05-18T01:31:21.966Z,23.61
2023-05-18T01:32:21.900Z,23.61
2023-05-18T01:33:21.888Z,23.61
2023-05-18T01:34:21.934Z,23.61
2023-05-18T01:35:21.962Z,23.58
2023-05-18T01:36:21.972Z,23.59
2023-05-18T01:37:21.965Z,23.59
2023-05-18T01:38:22.027Z,23.58
2023-05-18T01:39:22.043Z,23.61
2023-05-18T01:40:22.046Z,23.59
2023-05-18T01:41:22.121Z,23.59
2023-05-18T01:42:22.103Z,23.58
2023-05-18T01:43:22.150Z,23.59
2023-05-18T01:44:22.163Z,23.59
2023-05-18T01:45:22.180Z,23.58
2023-05-18T01:46:22.256Z,23.59
2023-05-18T01:47:22.206Z,23.56
2023-05-18T01:48:22.219Z,23.58
2023-05-18T01:49:22.231Z,23.58
2023-05-18T01:50:22.278Z,23.58
2023-05-18T01:51:22.287Z,23.56
2023-05-18T01:52:22.310Z,23.58
2023-05-18T01:53:22.327Z,23.58
2023-05-18T01:54:22.402Z,23.58
2023-05-18T01:55:22.364Z,23.56
2023-05-18T01:56:22.367Z,23.58
2023-05-18T01:57:22.394Z,23.55
2023-05-18T01:58:22.419Z,23.58
2023-05-18T01:59:22.483Z,23.56
2023-05-18T02:00:22.498Z,23.56
2023-05-18T02:01:22.594Z,23.56
2023-05-18T02:02:22.573Z,23.56
2023-05-18T02:03:22.723Z,23.56
2023-05-18T02:04:22.708Z,23.56
2023-05-18T02:05:22.629Z,23.58
2023-05-18T02:06:22.615Z,23.55
2023-05-18T02:07:22.655Z,23.59
2023-05-18T02:08:22.701Z,23.56
2023-05-18T02:09:22.708Z,23.56
2023-05-18T02:10:22.719Z,23.55
2023-05-18T02:11:22.712Z,23.55
2023-05-18T02:12:22.767Z,23.55
2023-05-18T02:13:22.781Z,23.55
2023-05-18T02:14:22.837Z,23.56
2023-05-18T02:15:22.824Z,23.54
2023-05-18T02:16:22.904Z,23.55
2023-05-18T02:17:22.960Z,23.55
2023-05-18T02:18:22.904Z,23.55
2023-05-18T02:19:23.107Z,23.55
2023-05-18T02:20:22.979Z,23.56
2023-05-18T02:21:22.996Z,23.55
2023-05-18T02:22:23.052Z,23.55
2023-05-18T02:23:23.064Z,23.54
2023-05-18T02:24:23.074Z,23.56
2023-05-18T02:25:23.121Z,23.56
2023-05-18T02:26:23.091Z,23.54
2023-05-18T02:27:23.136Z,23.55
2023-05-18T02:28:23.146Z,23.55
2023-05-18T02:29:23.178Z,23.56
2023-05-18T02:30:23.189Z,23.52
2023-05-18T02:31:23.286Z,23.56
2023-05-18T02:32:23.237Z,23.55
2023-05-18T02:33:23.231Z,23.54
2023-05-18T02:34:23.516Z,23.55
2023-05-18T02:35:23.338Z,23.54
2023-05-18T02:36:23.349Z,23.54
2023-05-18T02:37:23.461Z,23.55
2023-05-18T02:38:23.366Z,23.55
2023-05-18T02:39:23.364Z,23.54
2023-05-18T02:40:23.399Z,23.54
2023-05-18T02:41:23.458Z,23.55
2023-05-18T02:42:23.440Z,23.58
2023-05-18T02:43:23.440Z,23.54
2023-05-18T02:44:23.492Z,23.52
2023-05-18T02:45:24.006Z,23.54
2023-05-18T02:46:23.623Z,23.54
2023-05-18T02:47:23.623Z,23.55
2023-05-18T02:48:23.564Z,23.54
2023-05-18T02:49:23.610Z,23.54
2023-05-18T02:50:23.631Z,23.51
2023-05-18T02:51:23.660Z,23.52
2023-05-18T02:52:23.706Z,23.52
2023-05-18T02:53:23.701Z,23.54
2023-05-18T02:54:23.733Z,23.54
2023-05-18T02:55:23.738Z,23.52
2023-05-18T02:56:23.791Z,23.52
2023-05-18T02:57:23.786Z,23.51
2023-05-18T02:58:23.959Z,23.54
2023-05-18T02:59:23.832Z,23.55
2023-05-18T03:00:23.893Z,23.52
2023-05-18T03:01:23.928Z,23.54
2023-05-18T03:02:24.032Z,23.52
2023-05-18T03:03:24.079Z,23.51
2023-05-18T03:04:23.994Z,23.52
2023-05-18T03:05:23.997Z,23.52
2023-05-18T03:06:24.018Z,23.49
2023-05-18T03:07:24.061Z,23.52
2023-05-18T03:08:24.068Z,23.51
2023-05-18T03:09:24.120Z,23.52
2023-05-18T03:10:24.499Z,23.52
2023-05-18T03:11:24.190Z,23.51
2023-05-18T03:12:24.185Z,23.51
2023-05-18T03:13:24.230Z,23.49
2023-05-18T03:14:24.218Z,23.51
2023-05-18T03:15:24.267Z,23.49
2023-05-18T03:16:24.297Z,23.49
2023-05-18T03:17:24.349Z,23.51
2023-05-18T03:18:24.327Z,23.52
2023-05-18T03:19:24.449Z,23.52
2023-05-18T03:20:24.380Z,23.52
2023-05-18T03:21:24.400Z,23.51
2023-05-18T03:22:24.462Z,23.49
2023-05-18T03:23:24.450Z,23.51
2023-05-18T03:24:24.509Z,23.49
2023-05-18T03:25:24.556Z,23.51
2023-05-18T03:26:24.534Z,23.51
2023-05-18T03:27:24.591Z,23.48
2023-05-18T03:28:24.584Z,23.49
2023-05-18T03:29:24.630Z,23.49
2023-05-18T03:30:24.661Z,23.52
2023-05-18T03:31:24.778Z,23.46
2023-05-18T03:32:24.728Z,23.49
2023-05-18T03:33:24.727Z,23.49
2023-05-18T03:34:24.777Z,23.49
2023-05-18T03:35:25.007Z,23.49
2023-05-18T03:36:24.858Z,23.51
2023-05-18T03:37:24.861Z,23.48
2023-05-18T03:38:24.913Z,23.49
2023-05-18T03:39:24.916Z,23.49
2023-05-18T03:40:25.020Z,23.48
2023-05-18T03:41:24.976Z,23.48
2023-05-18T03:42:24.992Z,23.51
2023-05-18T03:43:25.052Z,23.48
2023-05-18T03:44:25.062Z,23.49
2023-05-18T03:45:25.532Z,23.49
2023-05-18T03:46:25.268Z,23.49
2023-05-18T03:47:25.130Z,23.49
2023-05-18T03:48:25.212Z,23.48
2023-05-18T03:49:25.219Z,23.48
2023-05-18T03:50:25.548Z,23.48
2023-05-18T03:51:25.303Z,23.51
2023-05-18T03:52:25.286Z,23.45
2023-05-18T03:53:25.311Z,23.48
2023-05-18T03:54:25.363Z,23.48
2023-05-18T03:55:25.385Z,23.48
2023-05-18T03:56:25.397Z,23.48
2023-05-18T03:57:25.445Z,23.49
2023-05-18T03:58:25.447Z,23.49
2023-05-18T03:59:25.526Z,23.49
2023-05-18T04:00:25.541Z,23.49
2023-05-18T04:01:25.543Z,23.46
2023-05-18T04:02:25.729Z,23.49
2023-05-18T04:03:25.673Z,23.48
2023-05-18T04:04:26.249Z,23.49
2023-05-18T04:05:25.667Z,23.49
2023-05-18T04:06:25.696Z,23.46
2023-05-18T04:07:25.710Z,23.49
2023-05-18T04:08:25.842Z,23.45
2023-05-18T04:09:25.767Z,23.46
2023-05-18T04:10:25.805Z,23.49
2023-05-18T04:11:25.875Z,23.45
2023-05-18T04:12:25.852Z,23.48
2023-05-18T04:13:25.944Z,23.46
2023-05-18T04:14:26.060Z,23.48
2023-05-18T04:15:25.945Z,23.49
2023-05-18T04:16:26.157Z,23.45
2023-05-18T04:17:26.087Z,23.46
2023-05-18T04:18:26.069Z,23.46
2023-05-18T04:19:26.560Z,23.46
2023-05-18T04:20:26.110Z,23.44
2023-05-18T04:21:26.175Z,23.46
2023-05-18T04:22:26.201Z,23.46
2023-05-18T04:23:26.202Z,23.48
2023-05-18T04:24:26.235Z,23.44
2023-05-18T04:25:26.554Z,23.45
2023-05-18T04:26:26.275Z,23.45
2023-05-18T04:27:26.334Z,23.42
2023-05-18T04:28:26.355Z,23.45
2023-05-18T04:29:26.384Z,23.45
2023-05-18T04:30:26.551Z,23.45
2023-05-18T04:31:26.450Z,23.48
2023-05-18T04:32:26.476Z,23.45
2023-05-18T04:33:26.480Z,23.46
2023-05-18T04:34:26.547Z,23.46
2023-05-18T04:35:27.048Z,23.45
2023-05-18T04:36:26.562Z,23.48
2023-05-18T04:37:26.600Z,23.44
2023-05-18T04:38:26.649Z,23.45
2023-05-18T04:39:26.692Z,23.45
2023-05-18T04:40:26.713Z,23.42
2023-05-18T04:41:26.751Z,23.44
2023-05-18T04:42:26.783Z,23.46
2023-05-18T04:43:26.799Z,23.46
2023-05-18T04:44:26.806Z,23.45
2023-05-18T04:45:26.832Z,23.46
2023-05-18T04:46:26.951Z,23.45
2023-05-18T04:47:26.892Z,23.46
2023-05-18T04:48:26.934Z,23.44
2023-05-18T04:49:26.975Z,23.45
2023-05-18T04:50:27.074Z,23.45
2023-05-18T04:51:27.053Z,23.46
2023-05-18T04:52:27.062Z,23.46
2023-05-18T04:53:27.132Z,23.45
2023-05-18T04:54:27.144Z,23.45
2023-05-18T04:55:27.188Z,23.42
2023-05-18T04:56:27.195Z,23.44
2023-05-18T04:57:27.269Z,23.42
2023-05-18T04:58:29.891Z,23.41
2023-05-18T04:59:27.275Z,23.42
2023-05-18T05:00:27.243Z,23.42
2023-05-18T05:01:27.287Z,23.42
2023-05-18T05:02:27.355Z,23.41
2023-05-18T05:03:27.307Z,23.44
2023-05-18T05:04:27.246Z,23.41
2023-05-18T05:05:27.784Z,23.44
2023-05-18T05:06:27.227Z,23.44
2023-05-18T05:07:27.219Z,23.42
2023-05-18T05:08:27.192Z,23.42
2023-05-18T05:09:27.206Z,23.45
2023-05-18T05:10:27.541Z,23.44
2023-05-18T05:11:27.203Z,23.44
2023-05-18T05:12:27.197Z,23.40
2023-05-18T05:13:27.175Z,23.41
2023-05-18T05:14:27.173Z,23.45
2023-05-18T05:15:27.156Z,23.44
2023-05-18T05:16:27.217Z,23.44
2023-05-18T05:17:27.176Z,23.42
2023-05-18T05:18:27.145Z,23.42
2023-05-18T05:19:27.281Z,23.44
2023-05-18T05:20:27.560Z,23.44
2023-05-18T05:21:27.141Z,23.44
2023-05-18T05:22:28.054Z,23.44
2023-05-18T05:23:27.089Z,23.44
2023-05-18T05:24:27.979Z,23.44
2023-05-18T05:25:27.082Z,23.44
2023-05-18T05:26:27.119Z,23.44
2023-05-18T05:27:27.071Z,23.42
2023-05-18T05:28:27.066Z,23.44
2023-05-18T05:29:27.060Z,23.42
2023-05-18T05:30:27.568Z,23.44
2023-05-18T05:31:27.130Z,23.45
2023-05-18T05:32:27.108Z,23.42
2023-05-18T05:33:27.068Z,23.44
2023-05-18T05:34:27.041Z,23.44
2023-05-18T05:35:27.055Z,23.44
2023-05-18T05:36:27.019Z,23.44
2023-05-18T05:37:27.030Z,23.44
2023-05-18T05:38:27.028Z,23.42
2023-05-18T05:39:26.986Z,23.44
2023-05-18T05:40:27.065Z,23.44
2023-05-18T05:41:27.004Z,23.44
2023-05-18T05:42:27.010Z,23.42
2023-05-18T05:43:27.017Z,23.45
2023-05-18T05:44:26.984Z,23.41
2023-05-18T05:45:27.037Z,23.45
2023-05-18T05:46:27.007Z,23.44
2023-05-18T05:47:27.044Z,23.44
2023-05-18T05:48:26.982Z,23.44
2023-05-18T05:49:26.970Z,23.45
2023-05-18T05:50:27.089Z,23.45
2023-05-18T05:51:26.958Z,23.42
2023-05-18T05:52:26.935Z,23.45
2023-05-18T05:53:26.954Z,23.45
2023-05-18T05:54:26.946Z,23.44
2023-05-18T05:55:26.987Z,23.46
2023-05-18T05:56:27.037Z,23.45
2023-05-18T05:57:27.072Z,23.46
2023-05-18T05:58:27.081Z,23.48
2023-05-18T05:59:27.135Z,23.46
2023-05-18T06:00:27.581Z,23.45
2023-05-18T06:01:27.221Z,23.45
2023-05-18T06:02:27.308Z,23.44
2023-05-18T06:03:27.331Z,23.45
2023-05-18T06:04:27.418Z,23.45
2023-05-18T06:05:27.614Z,23.45
2023-05-18T06:06:27.358Z,23.45
2023-05-18T06:07:27.392Z,23.45
2023-05-18T06:08:27.411Z,23.45
2023-05-18T06:09:27.430Z,23.45
2023-05-18T06:10:27.579Z,23.44
2023-05-18T06:11:27.509Z,23.45
2023-05-18T06:12:27.524Z,23.45
2023-05-18T06:13:27.562Z,23.45
2023-05-18T06:14:27.601Z,23.45
2023-05-18T06:15:28.224Z,23.44
2023-05-18T06:16:27.700Z,23.45
2023-05-18T06:17:27.719Z,23.46
2023-05-18T06:18:27.721Z,23.46
2023-05-18T06:19:27.771Z,23.45
2023-05-18T06:20:28.096Z,23.45
2023-05-18T06:21:27.810Z,23.46
2023-05-18T06:22:27.862Z,23.49
2023-05-18T06:23:27.873Z,23.46
2023-05-18T06:24:27.905Z,23.46
2023-05-18T06:25:28.115Z,23.46
2023-05-18T06:26:27.952Z,23.48
2023-05-18T06:27:27.979Z,23.48
2023-05-18T06:28:28.032Z,23.48
2023-05-18T06:29:28.033Z,23.46
2023-05-18T06:30:28.586Z,23.48
2023-05-18T06:31:30.160Z,23.49
2023-05-18T06:32:28.288Z,23.46
2023-05-18T06:33:28.191Z,23.46
2023-05-18T06:34:28.169Z,23.48
2023-05-18T06:35:28.630Z,23.49
2023-05-18T06:36:28.240Z,23.49
2023-05-18T06:37:28.280Z,23.46
2023-05-18T06:38:28.314Z,23.48
2023-05-18T06:39:28.354Z,23.48
2023-05-18T06:40:28.557Z,23.48
2023-05-18T06:41:28.411Z,23.48
2023-05-18T06:42:28.449Z,23.51
2023-05-18T06:43:28.571Z,23.48
2023-05-18T06:44:28.507Z,23.49
2023-05-18T06:45:28.878Z,23.49
2023-05-18T06:46:28.621Z,23.49
2023-05-18T06:47:28.708Z,23.51
2023-05-18T06:48:28.625Z,23.51
2023-05-18T06:49:28.674Z,23.52
2023-05-18T06:50:29.270Z,23.51
2023-05-18T06:51:28.730Z,23.49
2023-05-18T06:52:28.725Z,23.49
2023-05-18T06:53:28.735Z,23.51
2023-05-18T06:54:28.798Z,23.52
2023-05-18T06:55:29.291Z,23.51
2023-05-18T06:56:28.822Z,23.52
2023-05-18T06:57:28.823Z,23.51
2023-05-18T06:58:28.886Z,23.52
2023-05-18T06:59:28.896Z,23.48
2023-05-18T07:00:29.095Z,23.49
2023-05-18T07:01:28.994Z,23.49
2023-05-18T07:02:29.053Z,23.48
2023-05-18T07:03:29.068Z,23.49
2023-05-18T07:04:29.025Z,23.52
2023-05-18T07:05:29.203Z,23.51
2023-05-18T07:06:29.080Z,23.51
2023-05-18T07:07:29.108Z,23.49
2023-05-18T07:08:29.118Z,23.51
2023-05-18T07:09:29.156Z,23.49
2023-05-18T07:10:29.618Z,23.54
2023-05-18T07:11:29.912Z,23.51
2023-05-18T07:12:29.231Z,23.52
2023-05-18T07:13:29.207Z,23.51
2023-05-18T07:14:29.255Z,23.51
2023-05-18T07:15:30.015Z,23.51
2023-05-18T07:16:29.438Z,23.52
2023-05-18T07:17:29.336Z,23.54
2023-05-18T07:18:29.380Z,23.51
2023-05-18T07:19:29.414Z,23.49
2023-05-18T07:20:29.608Z,23.49
2023-05-18T07:21:29.458Z,23.52
2023-05-18T07:22:29.469Z,23.52
2023-05-18T07:23:29.506Z,23.49
2023-05-18T07:24:29.554Z,23.51
2023-05-18T07:25:29.846Z,23.51
2023-05-18T07:26:29.606Z,23.52
2023-05-18T07:27:29.611Z,23.51
2023-05-18T07:28:29.684Z,23.49
2023-05-18T07:29:29.712Z,23.52
2023-05-18T07:30:30.093Z,23.49
2023-05-18T07:31:29.836Z,23.52
2023-05-18T07:32:29.823Z,23.51
2023-05-18T07:33:29.797Z,23.51
2023-05-18T07:34:29.857Z,23.49
2023-05-18T07:35:30.299Z,23.51
2023-05-18T07:36:29.880Z,23.48
2023-05-18T07:37:29.954Z,23.52
2023-05-18T07:38:30.049Z,23.49
2023-05-18T07:39:30.031Z,23.51
2023-05-18T07:40:30.045Z,23.48
2023-05-18T07:41:30.065Z,23.51
2023-05-18T07:42:30.089Z,23.51
2023-05-18T07:43:30.110Z,23.49
2023-05-18T07:44:30.141Z,23.51
2023-05-18T07:45:30.646Z,23.49
2023-05-18T07:46:30.319Z,23.51
2023-05-18T07:47:30.282Z,23.51
2023-05-18T07:48:30.257Z,23.52
2023-05-18T07:49:30.312Z,23.49
2023-05-18T07:50:30.293Z,23.51
2023-05-18T07:51:30.332Z,23.49
2023-05-18T07:52:30.384Z,23.51
2023-05-18T07:53:30.379Z,23.51
2023-05-18T07:54:30.424Z,23.48
2023-05-18T07:55:30.777Z,23.52
2023-05-18T07:56:30.481Z,23.49
2023-05-18T07:57:30.526Z,23.51
2023-05-18T07:58:30.541Z,23.49
2023-05-18T07:59:30.606Z,23.51
2023-05-18T08:00:30.635Z,23.52
2023-05-18T08:01:30.661Z,23.51
2023-05-18T08:02:33.597Z,23.54
2023-05-18T08:03:30.721Z,23.54
2023-05-18T08:04:30.760Z,23.54
2023-05-18T08:05:30.819Z,23.55
2023-05-18T08:06:30.657Z,23.51
2023-05-18T08:07:30.622Z,23.52
2023-05-18T08:08:30.636Z,23.52
2023-05-18T08:09:30.633Z,23.52
2023-05-18T08:10:30.631Z,23.55
2023-05-18T08:11:30.605Z,23.54
2023-05-18T08:12:30.616Z,23.55
2023-05-18T08:13:33.249Z,23.54
2023-05-18T08:14:30.597Z,23.55
2023-05-18T08:15:30.725Z,23.56
2023-05-18T08:16:30.619Z,23.56
2023-05-18T08:17:30.623Z,23.54
2023-05-18T08:18:30.593Z,23.54
2023-05-18T08:19:30.633Z,23.56
2023-05-18T08:20:30.613Z,23.55
2023-05-18T08:21:30.531Z,23.55
2023-05-18T08:22:30.559Z,23.55
2023-05-18T08:23:30.529Z,23.56
2023-05-18T08:24:30.537Z,23.59
2023-05-18T08:25:30.720Z,23.55
2023-05-18T08:26:30.571Z,23.58
2023-05-18T08:27:30.506Z,23.59
2023-05-18T08:28:30.523Z,23.58
2023-05-18T08:29:30.534Z,23.59
2023-05-18T08:30:30.515Z,23.58
2023-05-18T08:31:30.553Z,23.56
2023-05-18T08:32:30.509Z,23.59
2023-05-18T08:33:30.477Z,23.59
2023-05-18T08:34:30.507Z,23.61
2023-05-18T08:35:30.782Z,23.59
2023-05-18T08:36:30.456Z,23.61
2023-05-18T08:37:30.487Z,23.58
2023-05-18T08:38:30.455Z,23.61
2023-05-18T08:39:30.464Z,23.61
2023-05-18T08:40:30.450Z,23.61
2023-05-18T08:41:30.441Z,23.61
2023-05-18T08:42:41.424Z,23.61
2023-05-18T08:43:31.424Z,23.59
2023-05-18T08:44:30.440Z,23.59
2023-05-18T08:45:30.716Z,23.62
2023-05-18T08:46:30.427Z,23.61
2023-05-18T08:47:30.468Z,23.61
2023-05-18T08:48:30.529Z,23.62
2023-05-18T08:49:30.374Z,23.61
2023-05-18T08:50:30.653Z,23.61
2023-05-18T08:51:30.413Z,23.59
2023-05-18T08:52:30.404Z,23.59
2023-05-18T08:53:30.374Z,23.62
2023-05-18T08:54:30.355Z,23.61
2023-05-18T08:55:30.916Z,23.61
2023-05-18T08:56:30.343Z,23.61
2023-05-18T08:57:30.364Z,23.61
2023-05-18T08:58:30.336Z,23.59
2023-05-18T08:59:30.346Z,23.62
2023-05-18T09:00:30.647Z,23.62
2023-05-18T09:01:30.392Z,23.62
2023-05-18T09:02:30.368Z,23.62
2023-05-18T09:03:30.345Z,23.62
2023-05-18T09:04:30.351Z,23.61
2023-05-18T09:05:30.592Z,23.61
2023-05-18T09:06:30.380Z,23.62
2023-05-18T09:07:30.371Z,23.63
2023-05-18T09:08:30.406Z,23.62
2023-05-18T09:09:30.422Z,23.63
2023-05-18T09:10:30.410Z,23.62
2023-05-18T09:11:30.466Z,23.61
2023-05-18T09:12:30.458Z,23.62
2023-05-18T09:13:30.473Z,23.63
2023-05-18T09:14:30.515Z,23.62
2023-05-18T09:15:30.699Z,23.62
2023-05-18T09:16:30.542Z,23.65
2023-05-18T09:17:30.592Z,23.62
2023-05-18T09:18:30.542Z,23.61
2023-05-18T09:19:30.588Z,23.62
2023-05-18T09:20:30.607Z,23.62
2023-05-18T09:21:30.609Z,23.63
2023-05-18T09:22:30.667Z,23.62
2023-05-18T09:23:30.636Z,23.62
2023-05-18T09:24:30.634Z,23.62
2023-05-18T09:25:30.823Z,23.62
2023-05-18T09:26:30.697Z,23.61
2023-05-18T09:27:30.704Z,23.62
2023-05-18T09:28:30.700Z,23.62
2023-05-18T09:29:32.883Z,23.62
2023-05-18T09:30:31.125Z,23.62
2023-05-18T09:31:30.772Z,23.62
2023-05-18T09:32:30.751Z,23.63
2023-05-18T09:33:30.808Z,23.63
2023-05-18T09:34:30.720Z,23.65
2023-05-18T09:35:31.309Z,23.63
2023-05-18T09:36:30.676Z,23.62
2023-05-18T09:37:30.714Z,23.59
2023-05-18T09:38:30.753Z,23.59
2023-05-18T09:39:30.700Z,23.61
2023-05-18T09:40:31.127Z,23.63
2023-05-18T09:41:30.699Z,23.65
2023-05-18T09:42:30.681Z,23.62
2023-05-18T09:43:30.629Z,23.63
2023-05-18T09:44:30.666Z,23.62
2023-05-18T09:45:30.800Z,23.62
2023-05-18T09:46:30.813Z,23.62
2023-05-18T09:47:30.665Z,23.61
2023-05-18T09:48:30.652Z,23.61
2023-05-18T09:49:30.586Z,23.62
2023-05-18T09:50:30.662Z,23.62
2023-05-18T09:51:30.601Z,23.61
2023-05-18T09:52:30.592Z,23.61
2023-05-18T09:53:30.584Z,23.61
2023-05-18T09:54:30.577Z,23.62
2023-05-18T09:55:30.769Z,23.62
2023-05-18T09:56:30.554Z,23.61
2023-05-18T09:57:30.613Z,23.62
2023-05-18T09:58:30.528Z,23.65
2023-05-18T09:59:30.549Z,23.62
2023-05-18T10:00:30.562Z,23.62
2023-05-18T10:01:30.587Z,23.62
2023-05-18T10:02:30.584Z,23.62
2023-05-18T10:03:30.552Z,23.62
2023-05-18T10:04:30.551Z,23.63
2023-05-18T10:05:32.489Z,23.62
2023-05-18T10:06:30.492Z,23.63
2023-05-18T10:07:30.506Z,23.63
2023-05-18T10:08:30.479Z,23.62
2023-05-18T10:09:30.476Z,23.62
2023-05-18T10:10:30.867Z,23.65
2023-05-18T10:11:30.478Z,23.63
2023-05-18T10:12:30.478Z,23.63
2023-05-18T10:13:30.469Z,23.63
2023-05-18T10:14:31.416Z,23.62
2023-05-18T10:15:30.763Z,23.65
2023-05-18T10:16:30.478Z,23.62
2023-05-18T10:17:30.548Z,23.63
2023-05-18T10:18:30.512Z,23.65
2023-05-18T10:19:30.497Z,23.62
2023-05-18T10:20:30.634Z,23.66
2023-05-18T10:21:30.488Z,23.63
2023-05-18T10:22:30.412Z,23.63
2023-05-18T10:23:30.452Z,23.66
2023-05-18T10:24:30.416Z,23.63
2023-05-18T10:25:30.416Z,23.63
2023-05-18T10:26:30.413Z,23.63
2023-05-18T10:27:30.423Z,23.63
2023-05-18T10:28:30.367Z,23.65
2023-05-18T10:29:30.385Z,23.65
2023-05-18T10:30:30.436Z,23.65
2023-05-18T10:31:30.496Z,23.63
2023-05-18T10:32:30.408Z,23.65
2023-05-18T10:33:30.503Z,23.66
2023-05-18T10:34:30.332Z,23.65
2023-05-18T10:35:30.325Z,23.65
2023-05-18T10:36:30.339Z,23.65
2023-05-18T10:37:30.297Z,23.66
2023-05-18T10:38:30.323Z,23.66
2023-05-18T10:39:30.294Z,23.65
2023-05-18T10:40:30.820Z,23.66
2023-05-18T10:41:30.313Z,23.69
2023-05-18T10:42:30.309Z,23.65
2023-05-18T10:43:30.308Z,23.66
2023-05-18T10:44:30.267Z,23.65
2023-05-18T10:45:30.265Z,23.68
2023-05-18T10:46:30.390Z,23.68
2023-05-18T10:47:30.391Z,23.69
2023-05-18T10:48:30.375Z,23.69
2023-05-18T10:49:30.276Z,23.66
2023-05-18T10:50:30.475Z,23.68
2023-05-18T10:51:30.217Z,23.68
2023-05-18T10:52:30.193Z,23.69
2023-05-18T10:53:30.250Z,23.65
2023-05-18T10:54:30.213Z,23.68
2023-05-18T10:55:30.194Z,23.68
2023-05-18T10:56:30.172Z,23.69
2023-05-18T10:57:30.179Z,23.66
2023-05-18T10:58:30.192Z,23.69
2023-05-18T10:59:30.173Z,23.68
2023-05-18T11:00:30.841Z,23.70
2023-05-18T11:01:30.192Z,23.68
2023-05-18T11:02:30.235Z,23.70
2023-05-18T11:03:30.165Z,23.68
2023-05-18T11:04:30.201Z,23.69
2023-05-18T11:05:30.114Z,23.66
2023-05-18T11:06:30.147Z,23.69
2023-05-18T11:07:30.148Z,23.70
2023-05-18T11:08:30.127Z,23.72
2023-05-18T11:09:30.128Z,23.70
2023-05-18T11:10:30.348Z,23.69
2023-05-18T11:11:30.099Z,23.69
2023-05-18T11:12:30.131Z,23.69
2023-05-18T11:13:30.129Z,23.69
2023-05-18T11:14:30.088Z,23.70
2023-05-18T11:15:30.160Z,23.70
2023-05-18T11:16:30.742Z,23.70
2023-05-18T11:17:30.141Z,23.72
2023-05-18T11:18:30.100Z,23.73
2023-05-18T11:19:30.074Z,23.73
2023-05-18T11:20:30.286Z,23.72
2023-05-18T11:21:30.034Z,23.73
2023-05-18T11:22:30.037Z,23.73
2023-05-18T11:23:30.035Z,23.73
2023-05-18T11:24:30.075Z,23.73
2023-05-18T11:25:30.158Z,23.72
2023-05-18T11:26:30.077Z,23.72
2023-05-18T11:27:30.091Z,23.72
2023-05-18T11:28:30.083Z,23.73
2023-05-18T11:29:30.127Z,23.72
2023-05-18T11:30:30.163Z,23.74
2023-05-18T11:31:30.141Z,23.73
2023-05-18T11:32:31.033Z,23.73
2023-05-18T11:33:30.197Z,23.72
2023-05-18T11:34:30.196Z,23.76
2023-05-18T11:35:30.203Z,23.74
2023-05-18T11:36:30.214Z,23.73
2023-05-18T11:37:30.221Z,23.77
2023-05-18T11:38:30.243Z,23.74
2023-05-18T11:39:30.244Z,23.73
2023-05-18T11:40:30.456Z,23.72
2023-05-18T11:41:30.274Z,23.73
2023-05-18T11:42:30.267Z,23.76
2023-05-18T11:43:30.318Z,23.73
2023-05-18T11:44:30.296Z,23.76
2023-05-18T11:45:30.308Z,23.76
2023-05-18T11:46:30.303Z,23.77
2023-05-18T11:47:30.415Z,23.74
2023-05-18T11:48:30.460Z,23.76
2023-05-18T11:49:30.369Z,23.74
2023-05-18T11:50:30.563Z,23.77
2023-05-18T11:51:30.385Z,23.74
2023-05-18T11:52:30.405Z,23.76
2023-05-18T11:53:30.390Z,23.76
2023-05-18T11:54:30.397Z,23.76
2023-05-18T11:55:30.447Z,23.73
2023-05-18T11:56:30.466Z,23.76
2023-05-18T11:57:30.467Z,23.76
2023-05-18T11:58:30.479Z,23.77
2023-05-18T11:59:30.490Z,23.76
2023-05-18T12:00:30.616Z,23.77
2023-05-18T12:01:30.524Z,23.79
2023-05-18T12:02:30.590Z,23.77
2023-05-18T12:03:30.586Z,23.77
2023-05-18T12:04:30.580Z,23.77
2023-05-18T12:05:30.597Z,23.76
2023-05-18T12:06:30.598Z,23.77
2023-05-18T12:07:30.634Z,23.80
2023-05-18T12:08:30.605Z,23.77
2023-05-18T12:09:30.609Z,23.77
2023-05-18T12:10:30.863Z,23.79
2023-05-18T12:11:30.681Z,23.80
2023-05-18T12:12:30.678Z,23.77
2023-05-18T12:13:30.664Z,23.79
2023-05-18T12:14:30.679Z,23.76
2023-05-18T12:15:30.716Z,23.80
2023-05-18T12:16:30.746Z,23.82
2023-05-18T12:17:30.781Z,23.79
2023-05-18T12:18:30.745Z,23.80
2023-05-18T12:19:30.744Z,23.83
2023-05-18T12:20:30.859Z,23.80
2023-05-18T12:21:30.803Z,23.80
2023-05-18T12:22:30.802Z,23.82
2023-05-18T12:23:30.819Z,23.82
2023-05-18T12:24:30.821Z,23.83
2023-05-18T12:25:30.865Z,23.84
2023-05-18T12:26:30.828Z,23.84
2023-05-18T12:27:30.880Z,23.82
2023-05-18T12:28:30.889Z,23.84
2023-05-18T12:29:30.914Z,23.83
2023-05-18T12:30:30.914Z,23.83
2023-05-18T12:31:30.952Z,23.84
2023-05-18T12:32:30.963Z,23.87
2023-05-18T12:33:30.993Z,23.84
2023-05-18T12:34:30.982Z,23.84
2023-05-18T12:35:31.253Z,23.86
2023-05-18T12:36:31.009Z,23.84
2023-05-18T12:37:44.163Z,23.86
2023-05-18T12:38:32.022Z,23.84
2023-05-18T12:39:30.977Z,23.89
2023-05-18T12:40:31.034Z,23.87
2023-05-18T12:41:31.026Z,23.87
2023-05-18T12:42:31.000Z,23.89
2023-05-18T12:43:30.987Z,23.87
2023-05-18T12:44:30.968Z,23.86
2023-05-18T12:45:31.103Z,23.90
2023-05-18T12:46:31.010Z,23.86
2023-05-18T12:47:31.039Z,23.90
2023-05-18T12:48:30.958Z,23.89
2023-05-18T12:49:30.939Z,23.89
2023-05-18T12:50:30.917Z,23.91
2023-05-18T12:51:30.947Z,23.89
2023-05-18T12:52:30.932Z,23.89